View Sortable Currents For Network
ASOSAWOSCoCoRaHSCOOPDCPISUSM
SchoolNetOtherSCANMy FavoritesBy StateRWIS
RWIS SurfaceRWIS TrafficRWIS SoilBy NWS WFO

Current AWOS Conditions

** This page will automatically refresh every five minutes.
Sorted by: (Relative Humidity)     Click on a column to sort it.

Add ID: Name: Ob Time   Wind [knots]   Rainfall
Temp (Hi / Lo) DewP Feels RH% Dir Speed Peak Gust
@ Time
Alti Vsby Hour Today
OLZOELWEIN03:35 AM 63(66/63) 63 64 100 340 55 @ 12:15 AM 30.02 10 0
FODFORT DODGE03:43 AM 61(64/61) 61 100 0 03 @ 12:05 AM 30.06 4 0
OXVKnoxville03:35 AM 63(66/63) 63 64 100 290 55 @ 01:55 AM 30.01 1 0
FSWFORT MADISON03:35 AM 64(66/64) 64 100 0 03 @ 12:15 AM 29.99 5 0
CKPCherokee03:35 AM 66(67/66) 66 100 0 00 @ 06:00 PM 30.07 7 0
MXOMONTICELLO MUNI03:35 AM 63(68/63) 63 100 0 03 @ 12:55 AM 29.98 0.25 0
DEHDECORAH03:35 AM 64(68/64) 64 66 100 300 44 @ 12:15 AM 30.01 9 0
SHLSHELDON03:35 AM 68(68/64) 68 100 0 03 @ 02:55 AM 30.07 7 0
FXYForest City03:35 AM 61(64/61) 61 100 0 00 @ 06:00 PM 30.06 5 0
MPZMOUNT PLEASANT03:35 AM 64(68/64) 64 66 100 330 66 @ 01:55 AM 29.99 7 0
HPTHampton03:35 AM 61(63/61) 61 100 0 00 @ 06:00 PM 30.04 4 0
EBSWebster City03:35 AM 61(64/61) 61 62 100 330 34 @ 02:15 AM 30.03 6 0
CINCARROLL03:35 AM 63(63/61) 63 100 0 05 @ 03:15 AM 30.06 8 0
FFLFAIRFIELD03:35 AM 63(64/63) 63 64 100 340 46 @ 01:55 AM 29.99 6 0
AIOATLANTIC03:35 AM 63(64/63) 63 100 0 04 @ 12:35 AM 30.06 7 0
CWICLINTON03:49 AM 63(66/63) 63 64 100 330 38 @ 12:00 AM 29.99 2 0
DNSDENISON03:35 AM 64(64/63) 64 100 0 03 @ 02:35 AM 30.08 4 0
PROPerry03:35 AM 62(65/62) 62 63 100 290 34 @ 02:35 AM 30.05 7 0
CCYCHARLES CITY03:35 AM 61(66/61) 61 62 100 340 66 @ 03:35 AM 30.04 6 0
OOAOskaloosa03:35 AM 61(64/61) 61 62 100 330 46 @ 01:15 AM 30.02 5 0
IKVANKENY03:35 AM 63(64/63) 63 100 0 00 @ 06:00 PM 30.04 7 0
TVKCenterville03:35 AM 63(63/63) 63 100 0 00 @ 06:00 PM 30.03 10 0
HNRHARLAN03:35 AM 63(64/63) 63 100 0 00 @ 06:00 PM 30.07 7 0
SDASHENANDOAH MUNI03:35 AM 64(66/64) 63 97 0 04 @ 12:15 AM 30.06 2.5 0
RDKRED OAK03:35 AM 64(68/64) 63 97 0 04 @ 12:35 AM 30.06 8 0
BNWBOONE MUNI03:35 AM 64(66/64) 63 97 0 03 @ 01:55 AM 30.04 8 0
VTIVINTON03:55 AM 64(66/64) 63 65 97 300 34 @ 03:35 AM 30 3 0
IIBINDEPENDENCE03:35 AM 61(63/61) 60 62 97 350 45 @ 12:55 AM 30.01 4 0
TNUNEWTON MUNI03:35 AM 64(68/64) 63 65 97 350 45 @ 02:35 AM 30.02 10 0
PEAPELLA03:35 AM 63(65/63) 62 97 0 00 @ 06:00 PM 30.03 7 0
IFAIowa Falls03:55 AM 62(66/62) 61 96 0 04 @ 02:35 AM 30.05 7 0 0.0001
AWGWASHINGTON03:35 AM 66(68/64) 64 67 93 350 57 @ 01:35 AM 30 10 0
I75Osceola03:35 AM 63(64/62) 61 64 93 290 44 @ 02:55 AM 30.04 7 0
CSQCRESTON03:35 AM 63(66/63) 61 64 93 310 34 @ 12:15 AM 30.07 6 0
GGIGrinnell03:35 AM 63(65/62) 61 64 93 330 45 @ 02:15 AM 30.03 7 0
CAVCLARION03:35 AM 61(64/61) 59 93 0 03 @ 02:35 AM 30.05 9 0
ICLCLARINDA03:35 AM 63(64/63) 61 64 93 20 33 @ 02:15 AM 30.07 7 0
CNCCHARITON03:35 AM 63(66/63) 61 64 93 300 55 @ 03:35 AM 30.02 7 0
MUTMUSCATINE03:35 AM 66(68/66) 64 93 0 06 @ 01:35 AM 29.98 9 0
AXAALGONA03:35 AM 63(66/63) 61 93 0 03 @ 12:15 AM 30.07 7 0
EOKKEOKUK MUNI03:35 AM 66(68/66) 64 67 93 10 35 @ 02:15 AM 29.97 10 0
SLBStorm Lake03:35 AM 66(66/64) 64 93 0 04 @ 12:15 AM 30.07 10 0
ADUAUDUBON03:35 AM 63(63/61) 59 87 0 00 @ 06:00 PM 30.07 10 0
LRJLE MARS03:35 AM 70(70/68) 66 87 0 05 @ 02:55 AM 30.07 10 0
CBFCOUNCIL BLUFFS03:35 AM 68(70/68) 64 69 87 120 36 @ 01:15 AM 30.05 10 0
ORCOrange City03:35 AM 72(73/70) 64 76 0 03 @ 12:15 AM 30.08 10 0